Cherokee, Kansas
Current Conditions -  °F | °C
As of 11:15 PM on Saturday 25 Oct 2014 (Local Time) from KPTS Reporting Station
Clear Clear  
Wind Chill: 64°   Ceiling: Unl
Heat Index: 64°   Visibility: 10mi
Dew Point: 64°   Wind: 3mph
Humidity: 100%   Direction: 180°S
Pressure: 29.99"   Gusts: NA
Location:  37.35°N, 94.81°W
Report Text: KPTS 260415Z AUTO 18003KT 10SM CLR 18/18 A2999 RMK AO2 T01800182
Loading
Personal Weather Stations






























Interactive Weather Map
Tropical Storm Tracking
New forecast layout! Learn more

10-Day Weather Forecast

Advertisements
Track Severe Weather on mobile